Time;durP1;ratioP1;P1;durP2;ratioP2;P2;SDS_P1;SDS_P2;PMS_P1;PMS_P2;Temp;Humidity;BMP_temperature;BMP_pressure;BME280_temperature;BME280_humidity;BME280_pressure;Samples;Min_cycle;Max_cycle;Signal;HPM_P1;HPM_P2
2022/07/15 00:02:05;;;;;;;4.95;3.33;;;;;;;19.77;nan;-24367.06;4977078;28;20215;-57
2022/07/15 00:04:31;;;;;;;4.10;3.03;;;;;;;19.50;nan;-24359.56;4977386;28;20173;-56
2022/07/15 00:06:57;;;;;;;4.93;3.50;;;;;;;19.45;nan;-24358.31;4978253;28;20631;-56
2022/07/15 00:10:13;;;;;;;5.78;3.40;;;;;;;19.42;nan;-24357.59;4977999;28;20271;-56
2022/07/15 00:12:08;;;;;;;5.38;2.83;;;;;;;19.16;nan;-24350.38;4979159;28;20287;-56
2022/07/15 00:14:34;;;;;;;4.82;2.83;;;;;;;19.49;nan;-24359.28;4975185;28;20267;-55
2022/07/15 00:16:59;;;;;;;5.20;3.33;;;;;;;19.49;nan;-24359.28;4975793;28;20181;-56
2022/07/15 00:19:25;;;;;;;3.50;3.00;;;;;;;19.52;nan;-24360.13;4978715;28;20643;-56
2022/07/15 00:21:50;;;;;;;5.55;3.38;;;;;;;19.16;nan;-24350.38;4975970;28;20266;-57
2022/07/15 00:24:16;;;;;;;4.95;3.15;;;;;;;19.58;nan;-24361.78;4976587;28;20579;-57
2022/07/15 00:26:41;;;;;;;4.68;3.40;;;;;;;19.25;nan;-24352.75;4977257;28;20185;-57
2022/07/15 00:29:07;;;;;;;4.65;2.88;;;;;;;19.52;nan;-24360.13;4977378;28;20195;-56
2022/07/15 00:31:33;;;;;;;4.82;3.13;;;;;;;19.64;nan;-24363.44;4978303;28;20176;-57
2022/07/15 00:33:58;;;;;;;4.13;3.05;;;;;;;19.45;nan;-24358.16;4977190;28;20177;-56
2022/07/15 00:36:24;;;;;;;4.55;3.35;;;;;;;19.57;nan;-24361.50;4979494;28;20306;-55
2022/07/15 00:38:49;;;;;;;5.13;3.08;;;;;;;19.51;nan;-24359.97;4976416;28;20189;-55
2022/07/15 00:41:15;;;;;;;4.90;3.53;;;;;;;19.41;nan;-24357.19;4978687;28;20185;-56
2022/07/15 00:43:41;;;;;;;6.30;3.17;;;;;;;19.39;nan;-24356.78;4977227;28;20568;-55
2022/07/15 00:46:06;;;;;;;4.60;3.30;;;;;;;18.91;nan;-24343.56;4973450;28;20295;-56
2022/07/15 00:48:32;;;;;;;6.00;3.42;;;;;;;19.18;nan;-24350.94;4971236;28;20185;-56
2022/07/15 00:50:58;;;;;;;4.28;3.13;;;;;;;19.16;nan;-24350.22;4972179;28;20562;-56
2022/07/15 00:53:28;;;;;;;6.70;3.20;;;;;;;19.03;nan;-24346.75;4966933;28;20185;-56
2022/07/15 00:55:59;;;;;;;4.70;3.42;;;;;;;19.00;nan;-24345.91;4972750;28;20193;-57
2022/07/15 00:58:26;;;;;;;7.07;3.50;;;;;;;18.99;nan;-24345.66;4974238;28;20176;-57
2022/07/15 01:00:53;;;;;;;4.50;2.90;;;;;;;19.00;nan;-24345.78;4974083;28;20583;-56
2022/07/15 01:03:20;;;;;;;4.35;3.13;;;;;;;18.70;nan;-24337.56;4971477;28;20220;-57
2022/07/15 01:05:47;;;;;;;4.72;3.33;;;;;;;18.69;nan;-24337.28;4973318;28;21245;-56
2022/07/15 01:08:13;;;;;;;5.35;3.65;;;;;;;18.77;nan;-24339.66;4971735;28;20698;-56
2022/07/15 01:10:40;;;;;;;4.82;3.28;;;;;;;18.78;nan;-24339.78;4968050;28;20196;-58
2022/07/15 01:13:06;;;;;;;5.85;3.47;;;;;;;18.94;nan;-24344.25;4970769;28;20182;-57
2022/07/15 01:15:32;;;;;;;4.95;3.28;;;;;;;18.91;nan;-24343.41;4965678;28;20183;-57
2022/07/15 01:18:00;;;;;;;6.95;3.70;;;;;;;18.61;nan;-24335.19;4973924;28;20174;-56
2022/07/15 01:20:25;;;;;;;5.10;3.42;;;;;;;18.72;nan;-24338.25;4980669;28;20227;-56
2022/07/15 01:22:51;;;;;;;7.13;3.47;;;;;;;18.76;nan;-24339.38;4979560;28;20209;-56
2022/07/15 01:25:16;;;;;;;6.80;3.90;;;;;;;18.57;nan;-24334.09;4982118;28;20185;-56
2022/07/15 01:27:42;;;;;;;4.38;2.92;;;;;;;18.30;nan;-24326.69;4980328;28;20197;-55
2022/07/15 01:30:08;;;;;;;4.90;3.30;;;;;;;18.72;nan;-24338.13;4981361;28;20234;-57
2022/07/15 01:32:34;;;;;;;5.80;3.50;;;;;;;18.48;nan;-24331.72;4980983;28;20189;-56
2022/07/15 01:35:00;;;;;;;5.65;3.42;;;;;;;18.17;nan;-24323.06;4980117;28;20208;-56
2022/07/15 01:37:26;;;;;;;4.97;3.65;;;;;;;14.04;nan;-24208.94;4981991;28;20688;-56
2022/07/15 01:39:52;;;;;;;4.78;3.58;;;;;;;18.33;nan;-24327.53;4979376;28;20188;-56
2022/07/15 01:42:17;;;;;;;3.83;2.92;;;;;;;18.26;nan;-24325.59;4982315;28;20200;-55
2022/07/15 01:44:43;;;;;;;6.05;3.88;;;;;;;18.03;nan;-24319.31;4982555;28;20208;-55
2022/07/15 01:47:08;;;;;;;7.40;3.92;;;;;;;18.03;nan;-24319.31;4981100;28;20180;-57
2022/07/15 01:49:34;;;;;;;7.75;4.05;;;;;;;17.96;nan;-24317.34;4984221;28;20180;-57
2022/07/15 01:52:02;;;;;;;4.32;3.38;;;;;;;17.85;nan;-24314.16;4980292;28;20232;-56
2022/07/15 01:54:30;;;;;;;5.70;3.55;;;;;;;17.98;nan;-24317.91;4981566;28;20268;-56
2022/07/15 01:56:56;;;;;;;5.45;3.70;;;;;;;17.83;nan;-24313.59;4980002;28;20593;-57
2022/07/15 01:59:22;;;;;;;3.88;3.03;;;;;;;17.97;nan;-24317.50;4979928;28;20201;-56
2022/07/15 02:01:48;;;;;;;5.65;3.50;;;;;;;17.61;nan;-24307.59;4979596;28;20185;-56
2022/07/15 02:04:14;;;;;;;4.15;2.97;;;;;;;17.95;nan;-24316.94;4979564;28;20177;-56
2022/07/15 02:06:40;;;;;;;5.18;3.45;;;;;;;15.49;nan;-24249.03;4980352;28;20271;-56
2022/07/15 02:09:07;;;;;;;7.20;3.60;;;;;;;17.81;nan;-24313.19;4980272;28;20251;-57
2022/07/15 02:11:33;;;;;;;6.03;3.55;;;;;;;18.06;nan;-24320.00;4980666;28;20696;-56
2022/07/15 02:13:59;;;;;;;5.75;3.50;;;;;;;17.95;nan;-24316.94;4980305;28;20173;-54
2022/07/15 02:16:25;;;;;;;4.95;3.40;;;;;;;17.81;nan;-24313.03;4981374;28;20193;-56
2022/07/15 02:18:51;;;;;;;6.40;3.20;;;;;;;17.53;nan;-24305.50;4979452;28;20192;-56
2022/07/15 02:21:16;;;;;;;4.35;3.25;;;;;;;17.58;nan;-24306.91;4981338;28;20177;-56
2022/07/15 02:23:42;;;;;;;4.63;3.20;;;;;;;17.34;nan;-24300.06;4979224;28;20212;-55
2022/07/15 02:26:07;;;;;;;3.97;3.30;;;;;;;17.72;nan;-24310.53;4980316;28;20180;-57
2022/07/15 02:28:33;;;;;;;6.63;3.60;;;;;;;17.70;nan;-24310.13;4977794;28;20589;-56
2022/07/15 02:30:59;;;;;;;3.90;3.17;;;;;;;18.01;nan;-24318.75;4978447;28;20177;-55
2022/07/15 02:33:24;;;;;;;4.63;3.35;;;;;;;17.93;nan;-24316.53;4982461;28;20208;-56
2022/07/15 02:35:50;;;;;;;5.88;3.70;;;;;;;17.98;nan;-24317.78;4979375;28;20251;-55
2022/07/15 02:38:17;;;;;;;4.07;3.20;;;;;;;17.72;nan;-24310.66;4980851;28;20549;-57
2022/07/15 02:40:43;;;;;;;4.00;2.95;;;;;;;;;;4976811;28;20184;-57
2022/07/15 02:43:09;;;;;;;4.00;3.17;;;;;;;17.93;nan;-24316.38;4977940;28;20212;-56
2022/07/15 02:45:36;;;;;;;4.18;3.28;;;;;;;17.98;nan;-24317.78;4977945;28;20195;-56
2022/07/15 02:48:02;;;;;;;5.22;3.78;;;;;;;17.73;nan;-24310.94;4979008;28;20571;-58
2022/07/15 02:50:28;;;;;;;5.00;3.60;;;;;;;18.03;nan;-24319.19;4978139;28;20180;-57
2022/07/15 02:52:54;;;;;;;4.50;3.33;;;;;;;17.74;nan;-24311.22;4976612;28;20212;-57
2022/07/15 02:55:19;;;;;;;6.80;3.50;;;;;;;17.69;nan;-24309.69;4978362;28;20189;-56
2022/07/15 02:57:45;;;;;;;4.28;3.15;;;;;;;;;;4978597;28;20185;-57
2022/07/15 03:00:14;;;;;;;5.05;3.10;;;;;;;18.07;nan;-24320.44;4980028;28;20185;-55
2022/07/15 03:02:40;;;;;;;5.43;3.42;;;;;;;18.09;nan;-24320.97;4978505;28;20602;-56
2022/07/15 03:05:06;;;;;;;3.88;3.10;;;;;;;18.11;nan;-24321.41;4979281;28;20188;-56
2022/07/15 03:07:31;;;;;;;4.53;3.13;;;;;;;18.08;nan;-24320.56;4979605;28;20181;-56
2022/07/15 03:09:57;;;;;;;4.10;3.10;;;;;;;18.35;nan;-24328.09;4979909;28;20549;-56
2022/07/15 03:12:23;;;;;;;4.75;3.35;;;;;;;18.97;nan;-24345.09;4977845;28;20268;-55
2022/07/15 03:14:48;;;;;;;5.53;2.88;;;;;;;19.41;nan;-24357.34;4975990;28;20272;-57
2022/07/15 03:17:14;;;;;;;4.47;2.90;;;;;;;20.34;nan;-24382.63;4975034;28;20189;-56
2022/07/15 03:19:40;;;;;;;3.60;2.63;;;;;;;21.12;nan;-24404.28;4976043;28;20599;-56
2022/07/15 03:22:06;;;;;;;3.88;2.90;;;;;;;21.60;nan;-24417.44;4976368;28;20220;-57
2022/07/15 03:24:31;;;;;;;3.70;2.65;;;;;;;22.24;nan;-24434.75;4973716;28;20185;-57
2022/07/15 03:26:57;;;;;;;4.47;2.92;;;;;;;22.84;nan;-24451.34;4975825;28;20224;-56
2022/07/15 03:29:23;;;;;;;3.40;2.70;;;;;;;23.06;nan;-24457.31;4975996;28;20234;-55
2022/07/15 03:31:48;;;;;;;5.15;3.00;;;;;;;23.81;nan;-24477.59;4976277;28;20184;-58
2022/07/15 03:34:14;;;;;;;5.20;3.72;;;;;;;24.70;nan;-24501.88;4975980;28;20260;-56
2022/07/15 03:36:40;;;;;;;4.63;2.80;;;;;;;23.76;nan;-24476.34;4975242;28;20243;-56
2022/07/15 03:39:06;;;;;;;4.88;3.17;;;;;;;26.01;nan;-24537.66;4976519;28;20891;-57
2022/07/15 03:41:33;;;;;;;3.80;2.95;;;;;;;26.24;nan;-24543.97;4974257;28;20223;-57
2022/07/15 03:44:00;;;;;;;4.53;3.00;;;;;;;26.72;nan;-24556.88;4973347;28;20204;-58
2022/07/15 03:46:26;;;;;;;4.43;3.08;;;;;;;27.45;nan;-24576.63;4972633;28;20189;-57
2022/07/15 03:48:51;;;;;;;4.13;2.80;;;;;;;27.81;nan;-24586.50;4972093;28;20205;-56
2022/07/15 03:51:17;;;;;;;5.50;2.97;;;;;;;28.57;nan;-24606.88;4973387;28;20213;-55
2022/07/15 03:53:43;;;;;;;5.05;3.08;;;;;;;28.90;nan;-24616.06;4975290;28;20649;-56
2022/07/15 03:56:09;;;;;;;5.25;2.58;;;;;;;29.28;nan;-24626.16;4972408;28;20181;-56
2022/07/15 03:58:34;;;;;;;3.58;2.58;;;;;;;29.77;nan;-24639.53;4976294;28;20191;-57
2022/07/15 04:01:00;;;;;;;4.60;3.20;;;;;;;30.30;nan;-24653.72;4974554;28;20860;-56
2022/07/15 04:03:25;;;;;;;3.47;2.50;;;;;;;30.98;nan;-24671.97;4973317;28;20215;-56
2022/07/15 04:05:51;;;;;;;3.53;2.83;;;;;;;31.19;nan;-24677.69;4974598;28;20180;-56
2022/07/15 04:08:16;;;;;;;3.85;2.95;;;;;;;31.69;nan;-24691.03;4977813;28;20236;-56
2022/07/15 04:10:42;;;;;;;4.28;2.75;;;;;;;32.26;nan;-24706.50;4976291;28;20276;-56
2022/07/15 04:13:07;;;;;;;3.85;2.70;;;;;;;32.36;nan;-24709.22;4975949;28;22553;-57
2022/07/15 04:15:33;;;;;;;4.70;3.10;;;;;;;32.38;nan;-24709.63;4978318;28;20688;-56
2022/07/15 04:17:58;;;;;;;3.05;2.50;;;;;;;32.68;nan;-24717.78;4976100;28;20178;-56
2022/07/15 04:20:26;;;;;;;3.08;2.35;;;;;;;32.57;nan;-24714.66;4979008;28;20180;-56
2022/07/15 04:22:51;;;;;;;3.75;2.70;;;;;;;32.52;nan;-24713.28;4974581;28;20221;-56
2022/07/15 04:25:20;;;;;;;4.13;2.72;;;;;;;32.74;nan;-24719.25;4978347;28;20564;-57
2022/07/15 04:27:47;;;;;;;3.60;2.47;;;;;;;32.17;nan;-24704.06;4976363;28;20192;-57
2022/07/15 04:30:13;;;;;;;4.45;2.78;;;;;;;32.47;nan;-24711.94;4980791;28;20190;-56
2022/07/15 04:32:39;;;;;;;4.00;2.53;;;;;;;32.55;nan;-24714.09;4976779;28;20539;-57
2022/07/15 04:35:05;;;;;;;5.80;3.00;;;;;;;32.64;nan;-24716.56;4977531;28;20341;-56
2022/07/15 04:37:31;;;;;;;4.70;3.05;;;;;;;32.84;nan;-24722.09;4977266;28;20220;-56
2022/07/15 04:39:56;;;;;;;4.75;2.55;;;;;;;33.09;nan;-24728.63;4974577;28;20571;-56
2022/07/15 04:42:22;;;;;;;3.28;2.40;;;;;;;32.62;nan;-24716.00;4978894;28;20235;-57
2022/07/15 04:44:48;;;;;;;3.75;2.90;;;;;;;32.11;nan;-24702.28;4974110;28;20272;-55
2022/07/15 04:47:14;;;;;;;4.15;2.78;;;;;;;31.90;nan;-24696.88;4978573;28;20188;-57
2022/07/15 04:52:24;;;;;;;4.50;3.03;;;;;;;31.68;nan;-24690.75;4978239;28;20188;-57
2022/07/15 04:54:51;;;;;;;4.38;2.70;;;;;;;31.71;nan;-24691.56;4976993;28;20569;-56
2022/07/15 04:57:16;;;;;;;6.45;3.08;;;;;;;31.85;nan;-24695.50;4982667;28;20188;-56
2022/07/15 04:59:42;;;;;;;3.72;2.90;;;;;;;31.34;nan;-24681.78;4980427;28;20185;-56
2022/07/15 05:02:07;;;;;;;4.53;2.83;;;;;;;31.36;nan;-24682.31;4978960;28;20681;-57
2022/07/15 05:04:32;;;;;;;4.38;2.80;;;;;;;30.55;nan;-24660.53;4979237;28;20539;-57
2022/07/15 05:06:58;;;;;;;4.68;3.08;;;;;;;30.43;nan;-24657.25;4980914;28;20189;-57
2022/07/15 05:09:23;;;;;;;3.30;2.53;;;;;;;;;;4981498;28;20172;-56
2022/07/15 05:11:49;;;;;;;4.50;2.88;;;;;;;29.78;nan;-24639.81;4979580;28;20189;-57
2022/07/15 05:14:14;;;;;;;4.20;2.72;;;;;;;28.61;nan;-24607.97;4982198;28;20645;-57
2022/07/15 05:16:40;;;;;;;3.78;3.00;;;;;;;30.02;nan;-24646.09;4977209;28;20192;-54
2022/07/15 05:19:06;;;;;;;4.03;2.90;;;;;;;30.19;nan;-24650.72;4978523;28;20177;-56
2022/07/15 05:21:32;;;;;;;5.38;3.00;;;;;;;29.86;nan;-24641.84;4981223;28;20674;-57
2022/07/15 05:23:57;;;;;;;5.45;2.88;;;;;;;29.71;nan;-24637.91;4978331;28;20216;-56
2022/07/15 05:26:23;;;;;;;3.53;3.00;;;;;;;30.09;nan;-24648.13;4983161;28;20341;-57
2022/07/15 05:28:49;;;;;;;3.72;2.80;;;;;;;30.06;nan;-24647.19;4982477;28;20268;-57
2022/07/15 05:31:14;;;;;;;4.65;3.40;;;;;;;29.39;nan;-24629.16;4979325;28;20204;-56
2022/07/15 05:33:40;;;;;;;4.75;2.70;;;;;;;28.81;nan;-24613.47;4981507;28;20676;-55
2022/07/15 05:36:10;;;;;;;4.22;3.00;;;;;;;28.53;nan;-24606.06;4979826;28;20217;-56
2022/07/15 05:38:35;;;;;;;6.18;3.15;;;;;;;28.62;nan;-24608.41;4979478;28;20279;-55
2022/07/15 05:41:01;;;;;;;7.88;3.15;;;;;;;27.82;nan;-24586.78;4979419;28;20268;-58
2022/07/15 05:43:26;;;;;;;4.00;2.67;;;;;;;27.88;nan;-24588.41;4980912;28;20204;-56
2022/07/15 05:45:51;;;;;;;3.20;2.83;;;;;;;27.29;nan;-24572.38;4979457;28;20193;-56
2022/07/15 05:48:17;;;;;;;5.18;3.63;;;;;;;27.48;nan;-24577.44;4981265;28;20259;-56
2022/07/15 05:50:42;;;;;;;3.10;2.60;;;;;;;27.57;nan;-24580.06;4988891;28;20204;-58
2022/07/15 05:53:08;;;;;;;3.78;3.10;;;;;;;27.47;nan;-24577.31;4980614;28;20191;-57
2022/07/15 05:55:33;;;;;;;3.42;2.50;;;;;;;27.13;nan;-24568.00;4980158;28;20191;-56
2022/07/15 05:57:59;;;;;;;4.60;3.03;;;;;;;26.83;nan;-24559.91;4978706;28;20288;-56
2022/07/15 06:00:24;;;;;;;3.17;2.70;;;;;;;26.87;nan;-24560.88;4980756;28;20268;-56
2022/07/15 06:02:50;;;;;;;3.63;2.97;;;;;;;26.25;nan;-24544.25;4978427;28;20205;-57
2022/07/15 06:05:15;;;;;;;3.92;2.70;;;;;;;26.04;nan;-24538.47;4980774;28;20193;-57
2022/07/15 06:07:41;;;;;;;5.13;2.80;;;;;;;26.29;nan;-24545.22;4978624;28;20177;-57
2022/07/15 06:10:08;;;;;;;5.70;3.22;;;;;;;26.15;nan;-24541.34;4978626;28;20633;-57
2022/07/15 06:12:33;;;;;;;3.92;2.80;;;;;;;25.46;nan;-24522.78;4978609;28;20193;-57
2022/07/15 06:14:59;;;;;;;4.65;3.28;;;;;;;25.93;nan;-24535.44;4978594;28;20189;-56
2022/07/15 06:17:25;;;;;;;4.13;3.08;;;;;;;26.04;nan;-24538.47;4979403;28;20628;-56
2022/07/15 06:19:51;;;;;;;4.60;3.10;;;;;;;26.13;nan;-24540.81;4979429;28;20225;-57
2022/07/15 06:22:16;;;;;;;5.18;2.67;;;;;;;26.01;nan;-24537.66;4981505;28;20218;-57
2022/07/15 06:24:42;;;;;;;4.22;2.95;;;;;;;25.82;nan;-24532.56;4979375;28;20181;-57
2022/07/15 06:27:07;;;;;;;3.85;3.25;;;;;;;26.21;nan;-24543.16;4980272;28;20271;-56
2022/07/15 06:29:33;;;;;;;4.55;3.40;;;;;;;26.38;nan;-24547.81;4977890;28;20186;-56
2022/07/15 06:31:59;;;;;;;6.10;3.17;;;;;;;26.26;nan;-24544.38;4979288;28;20645;-57
2022/07/15 06:34:24;;;;;;;3.38;2.75;;;;;;;26.44;nan;-24549.19;4989970;28;20209;-57
2022/07/15 06:36:50;;;;;;;4.50;3.00;;;;;;;26.74;nan;-24557.56;4979132;28;20228;-57
2022/07/15 06:39:16;;;;;;;6.18;3.25;;;;;;;26.78;nan;-24558.53;4981062;28;20185;-56
2022/07/15 06:41:42;;;;;;;5.50;3.50;;;;;;;26.68;nan;-24555.78;4979221;28;20178;-56
2022/07/15 06:44:07;;;;;;;4.00;3.03;;;;;;;26.91;nan;-24561.97;4974678;28;20208;-56
2022/07/15 06:46:33;;;;;;;4.22;2.92;;;;;;;27.03;nan;-24565.38;4976889;28;20599;-56
2022/07/15 06:48:59;;;;;;;5.30;3.20;;;;;;;27.14;nan;-24568.41;4979470;28;20688;-56
2022/07/15 06:51:25;;;;;;;3.50;2.78;;;;;;;27.25;nan;-24571.41;4976682;28;20192;-56
2022/07/15 06:53:50;;;;;;;3.63;2.85;;;;;;;27.26;nan;-24571.56;5010130;28;20221;-57
2022/07/15 06:56:16;;;;;;;4.72;3.00;;;;;;;27.16;nan;-24568.81;4981155;28;20721;-56
2022/07/15 06:58:41;;;;;;;3.83;2.78;;;;;;;27.08;nan;-24566.63;4979096;28;20177;-56
2022/07/15 07:01:07;;;;;;;4.35;2.92;;;;;;;27.28;nan;-24571.97;4979292;28;20186;-57
2022/07/15 07:03:32;;;;;;;4.20;2.90;;;;;;;27.13;nan;-24568.00;4979414;28;20230;-56
2022/07/15 07:05:58;;;;;;;3.20;2.70;;;;;;;27.29;nan;-24572.25;4980295;28;20234;-57
2022/07/15 07:08:23;;;;;;;5.18;2.90;;;;;;;27.12;nan;-24567.72;4980562;28;20172;-56
2022/07/15 07:10:49;;;;;;;4.07;2.97;;;;;;;22.36;nan;-24438.06;4978091;28;20192;-56
2022/07/15 07:13:14;;;;;;;3.55;3.00;;;;;;;;;;4980282;28;20178;-57
2022/07/15 07:15:40;;;;;;;3.75;2.75;;;;;;;27.19;nan;-24569.63;4976242;28;20188;-57
2022/07/15 07:18:05;;;;;;;3.53;2.58;;;;;;;27.37;nan;-24574.44;4978668;28;20181;-56
2022/07/15 07:20:31;;;;;;;3.63;2.78;;;;;;;27.56;nan;-24579.66;4977462;28;20179;-57
2022/07/15 07:22:57;;;;;;;3.72;2.97;;;;;;;27.45;nan;-24576.63;4976044;28;20219;-57
2022/07/15 07:25:23;;;;;;;4.45;2.85;;;;;;;27.23;nan;-24570.88;4980295;28;20203;-58
2022/07/15 07:27:49;;;;;;;3.75;2.50;;;;;;;27.53;nan;-24578.97;4977821;28;20196;-58
2022/07/15 07:30:15;;;;;;;3.28;2.70;;;;;;;27.56;nan;-24579.66;4979975;28;20237;-56
2022/07/15 07:32:40;;;;;;;3.00;2.70;;;;;;;27.71;nan;-24583.75;4977855;28;20188;-56
2022/07/15 07:35:07;;;;;;;4.18;2.80;;;;;;;27.54;nan;-24579.09;4978907;28;20232;-57
2022/07/15 07:37:37;;;;;;;4.22;2.63;;;;;;;27.57;nan;-24580.06;4979115;28;20223;-57
2022/07/15 07:40:04;;;;;;;3.28;2.78;;;;;;;28.03;nan;-24592.53;4978311;28;20551;-57
2022/07/15 07:42:30;;;;;;;3.05;2.60;;;;;;;27.90;nan;-24588.81;4979325;28;20238;-56
2022/07/15 07:44:55;;;;;;;3.58;2.40;;;;;;;28.28;nan;-24599.22;4977861;28;20625;-58
2022/07/15 07:47:21;;;;;;;2.80;2.40;;;;;;;28.30;nan;-24599.66;4980048;28;20267;-57
2022/07/15 07:49:47;;;;;;;3.83;2.72;;;;;;;28.22;nan;-24597.44;4977402;28;20189;-58
2022/07/15 07:52:15;;;;;;;3.10;2.60;;;;;;;27.97;nan;-24590.75;4982100;28;20181;-58
2022/07/15 07:54:41;;;;;;;3.40;2.70;;;;;;;28.20;nan;-24596.91;4975726;28;20185;-57
2022/07/15 07:57:07;;;;;;;3.25;2.70;;;;;;;28.26;nan;-24598.69;4978443;28;20178;-56
2022/07/15 07:59:32;;;;;;;3.00;2.70;;;;;;;28.44;nan;-24603.47;4978777;28;20177;-57
2022/07/15 08:01:58;;;;;;;6.63;3.03;;;;;;;28.18;nan;-24596.50;4977648;28;20607;-56
2022/07/15 08:04:24;;;;;;;5.18;2.60;;;;;;;28.37;nan;-24601.69;4980161;28;20185;-56
2022/07/15 08:06:50;;;;;;;4.38;2.45;;;;;;;28.49;nan;-24604.97;4979702;28;20637;-59
2022/07/15 08:09:16;;;;;;;6.57;2.80;;;;;;;28.83;nan;-24614.00;4979715;28;20185;-57
2022/07/15 08:11:42;;;;;;;4.13;3.00;;;;;;;28.83;nan;-24614.00;4973699;28;20680;-58
2022/07/15 08:14:08;;;;;;;2.88;2.40;;;;;;;28.33;nan;-24600.59;4978637;28;20185;-57
2022/07/15 08:16:34;;;;;;;3.00;2.35;;;;;;;28.27;nan;-24598.81;4978332;28;20279;-57
2022/07/15 08:18:59;;;;;;;3.65;2.78;;;;;;;28.41;nan;-24602.78;4977602;28;20193;-57
2022/07/15 08:21:25;;;;;;;3.35;2.63;;;;;;;28.32;nan;-24600.31;4979716;28;20214;-57
2022/07/15 08:23:50;;;;;;;3.42;2.40;;;;;;;28.07;nan;-24593.47;4976188;28;20700;-57
2022/07/15 08:26:22;;;;;;;2.40;2.15;;;;;;;28.61;nan;-24608.13;4978284;28;20173;-57
2022/07/15 08:28:49;;;;;;;4.40;2.45;;;;;;;28.88;nan;-24615.50;4976662;28;20188;-57
2022/07/15 08:31:14;;;;;;;3.92;2.70;;;;;;;28.89;nan;-24615.78;4982442;28;20181;-56
2022/07/15 08:33:39;;;;;;;2.50;2.22;;;;;;;28.87;nan;-24615.22;4980803;28;20188;-56
2022/07/15 08:36:05;;;;;;;2.70;2.35;;;;;;;29.16;nan;-24622.88;4981724;28;20239;-56
2022/07/15 08:38:30;;;;;;;4.05;2.58;;;;;;;29.21;nan;-24624.25;4979667;28;20185;-59
2022/07/15 08:40:57;;;;;;;3.15;2.50;;;;;;;29.11;nan;-24621.66;4980820;28;20181;-56
2022/07/15 08:43:22;;;;;;;2.40;2.20;;;;;;;28.64;nan;-24608.94;4982701;28;20211;-57
2022/07/15 08:45:48;;;;;;;2.92;2.35;;;;;;;28.75;nan;-24611.81;4980450;28;20189;-57
2022/07/15 08:48:16;;;;;;;2.67;2.47;;;;;;;29.11;nan;-24621.66;4983328;28;20185;-57
2022/07/15 08:50:43;;;;;;;3.92;2.58;;;;;;;28.97;nan;-24617.97;4980723;28;20216;-57
2022/07/15 08:53:09;;;;;;;2.95;2.30;;;;;;;25.53;nan;-24524.72;4979176;28;20646;-57
2022/07/15 08:55:34;;;;;;;3.05;2.50;;;;;;;29.37;nan;-24628.63;4981599;28;20278;-57
2022/07/15 08:58:00;;;;;;;3.30;2.50;;;;;;;;;;4979269;28;20648;-57
2022/07/15 09:00:29;;;;;;;2.72;2.33;;;;;;;29.98;nan;-24645.00;4986943;28;20254;-59
2022/07/15 09:03:04;;;;;;;3.42;2.53;;;;;;;29.29;nan;-24626.56;4978638;28;20266;-58
2022/07/15 09:05:36;;;;;;;4.70;3.00;;;;;;;30.13;nan;-24649.22;4982637;28;20207;-57
2022/07/15 09:08:11;;;;;;;3.88;2.90;;;;;;;30.35;nan;-24655.09;4981073;28;20649;-57
2022/07/15 09:11:08;;;;;;;3.88;3.00;;;;;;;30.78;nan;-24666.53;4977398;28;20203;-56
2022/07/15 09:13:38;;;;;;;4.97;2.42;;;;;;;31.01;nan;-24672.78;4984930;28;20196;-57
2022/07/15 09:16:08;;;;;;;3.70;2.60;;;;;;;31.13;nan;-24676.19;4980903;28;20184;-57
2022/07/15 09:18:44;;;;;;;3.13;2.30;;;;;;;31.24;nan;-24678.91;4979452;28;20671;-56
2022/07/15 09:21:21;;;;;;;4.32;3.03;;;;;;;30.97;nan;-24671.69;4982553;28;20186;-57
2022/07/15 09:23:47;;;;;;;8.43;5.13;;;;;;;30.71;nan;-24664.91;4978741;28;20247;-59
2022/07/15 09:26:35;;;;;;;2.85;2.50;;;;;;;30.25;nan;-24652.34;4983024;28;20216;-56
2022/07/15 09:29:02;;;;;;;4.32;3.03;;;;;;;30.65;nan;-24663.25;4982817;28;20610;-57
2022/07/15 09:34:16;;;;;;;3.58;2.50;;;;;;;30.38;nan;-24655.91;4985250;28;20211;-57
2022/07/15 09:36:54;;;;;;;2.97;2.47;;;;;;;30.75;nan;-24665.72;4980078;28;20706;-56
2022/07/15 09:39:24;;;;;;;4.53;2.25;;;;;;;30.65;nan;-24663.13;4982270;28;20176;-56
2022/07/15 09:41:51;;;;;;;2.45;1.95;;;;;;;30.66;nan;-24663.41;4979136;28;20571;-57
2022/07/15 09:44:19;;;;;;;4.25;2.13;;;;;;;30.63;nan;-24662.59;4979927;28;20216;-58
2022/07/15 09:46:59;;;;;;;2.33;2.13;;;;;;;30.59;nan;-24661.63;4980226;28;20199;-58
2022/07/15 09:49:24;;;;;;;2.42;1.85;;;;;;;30.95;nan;-24671.28;4980297;28;20199;-57
2022/07/15 09:51:55;;;;;;;3.35;2.35;;;;;;;30.87;nan;-24669.13;4979982;28;20611;-56
2022/07/15 09:54:23;;;;;;;2.40;1.88;;;;;;;31.35;nan;-24682.03;4982140;28;20275;-57
2022/07/15 09:56:50;;;;;;;1.92;1.73;;;;;;;31.24;nan;-24679.06;4979924;28;20188;-57
2022/07/15 09:59:16;;;;;;;3.25;1.92;;;;;;;30.93;nan;-24670.63;4981906;28;20205;-57
2022/07/15 10:01:43;;;;;;;5.18;2.00;;;;;;;30.77;nan;-24666.25;4979992;28;20177;-56
2022/07/15 10:04:10;;;;;;;2.40;2.20;;;;;;;31.19;nan;-24677.69;4980756;28;20565;-56
2022/07/15 10:06:37;;;;;;;2.25;2.03;;;;;;;31.31;nan;-24680.81;4980458;28;20183;-56
2022/07/15 10:09:04;;;;;;;2.40;2.05;;;;;;;31.31;nan;-24680.97;4980263;28;20176;-56
2022/07/15 10:11:34;;;;;;;3.63;2.35;;;;;;;31.19;nan;-24677.69;4983810;28;20176;-56
2022/07/15 10:14:02;;;;;;;2.45;2.20;;;;;;;31.33;nan;-24681.50;4979676;28;20215;-56
2022/07/15 10:17:06;;;;;;;2.67;2.15;;;;;;;30.89;nan;-24669.53;4983393;28;20188;-57
2022/07/15 10:19:48;;;;;;;3.17;2.30;;;;;;;30.93;nan;-24670.63;4982992;28;20203;-57
2022/07/15 10:22:16;;;;;;;2.40;2.20;;;;;;;31.00;nan;-24672.53;4983375;28;20181;-56
2022/07/15 10:24:53;;;;;;;3.53;2.53;;;;;;;31.11;nan;-24675.66;4979519;28;20177;-56
2022/07/15 10:27:27;;;;;;;2.67;2.17;;;;;;;30.95;nan;-24671.16;4981248;28;20192;-56
2022/07/15 10:29:54;;;;;;;2.53;2.00;;;;;;;30.98;nan;-24671.97;4979203;28;20259;-59
2022/07/15 10:32:19;;;;;;;3.33;2.05;;;;;;;30.91;nan;-24670.06;4977179;28;20271;-57
2022/07/15 10:34:45;;;;;;;3.30;2.20;;;;;;;31.21;nan;-24678.09;4981263;28;20295;-58
2022/07/15 10:37:12;;;;;;;4.15;2.30;;;;;;;30.82;nan;-24667.75;4980595;28;20688;-56
2022/07/15 10:40:06;;;;;;;2.25;1.83;;;;;;;30.58;nan;-24661.22;4979296;28;20181;-57
2022/07/15 10:42:58;;;;;;;3.65;2.58;;;;;;;31.09;nan;-24674.97;4977871;28;20201;-58
2022/07/15 10:45:24;;;;;;;2.47;2.00;;;;;;;31.20;nan;-24677.97;4980725;28;20180;-57
2022/07/15 10:48:36;;;;;;;3.30;2.45;;;;;;;31.72;nan;-24691.84;4978538;28;20276;-57
2022/07/15 10:51:01;;;;;;;3.08;2.17;;;;;;;31.83;nan;-24694.81;4979821;28;20288;-56
2022/07/15 10:53:27;;;;;;;2.38;1.85;;;;;;;31.62;nan;-24689.25;4977769;28;20259;-57
2022/07/15 10:55:53;;;;;;;3.03;2.47;;;;;;;32.03;nan;-24700.13;4976946;28;20184;-57
2022/07/15 10:58:19;;;;;;;2.40;2.13;;;;;;;32.01;nan;-24699.72;4978749;28;20652;-57
2022/07/15 11:00:46;;;;;;;2.95;2.10;;;;;;;31.92;nan;-24697.28;4978480;28;20550;-57
2022/07/15 11:03:19;;;;;;;2.58;2.20;;;;;;;32.08;nan;-24701.63;4979626;28;20216;-57
2022/07/15 11:05:45;;;;;;;4.40;3.03;;;;;;;32.19;nan;-24704.47;4980572;28;20192;-56
2022/07/15 11:08:43;;;;;;;2.40;2.20;;;;;;;32.11;nan;-24702.44;4982734;28;20199;-56
2022/07/15 11:11:14;;;;;;;3.20;1.95;;;;;;;31.94;nan;-24697.94;4988679;28;20579;-57
2022/07/15 11:13:41;;;;;;;2.70;2.30;;;;;;;31.79;nan;-24693.88;4976333;28;20628;-57
2022/07/15 11:16:16;;;;;;;2.38;2.00;;;;;;;31.59;nan;-24688.44;4979412;28;20200;-56
2022/07/15 11:18:57;;;;;;;2.97;2.20;;;;;;;31.50;nan;-24685.97;4978768;28;20211;-58
2022/07/15 11:21:23;;;;;;;2.28;1.92;;;;;;;31.66;nan;-24690.22;4979815;28;20621;-57
2022/07/15 11:23:50;;;;;;;3.33;2.00;;;;;;;31.79;nan;-24693.75;4980055;28;20311;-56
2022/07/15 11:26:16;;;;;;;2.17;1.98;;;;;;;31.67;nan;-24690.47;4980469;28;20263;-56
2022/07/15 11:28:54;;;;;;;2.03;1.83;;;;;;;32.10;nan;-24702.03;4978163;28;20365;-56
2022/07/15 11:31:19;;;;;;;2.53;1.83;;;;;;;31.93;nan;-24697.53;4977886;28;20558;-58
2022/07/15 11:33:45;;;;;;;2.55;2.10;;;;;;;32.22;nan;-24705.28;4977640;28;20184;-56
2022/07/15 11:36:17;;;;;;;2.55;1.90;;;;;;;32.58;nan;-24714.91;4979200;28;20219;-56
2022/07/15 11:38:43;;;;;;;2.38;2.00;;;;;;;32.57;nan;-24714.78;4980301;28;20169;-57
2022/07/15 11:46:47;;;;;;;2.30;1.90;;;;;;;32.82;nan;-24721.44;4977457;28;20195;-58
2022/07/15 11:49:39;;;;;;;2.10;1.80;;;;;;;32.86;nan;-24722.50;4977843;28;20184;-56
2022/07/15 11:52:07;;;;;;;2.25;1.90;;;;;;;32.79;nan;-24720.75;4977766;28;20296;-57
2022/07/15 11:54:37;;;;;;;2.08;1.88;;;;;;;33.16;nan;-24730.66;4975655;28;20197;-58
2022/07/15 11:57:06;;;;;;;3.40;2.05;;;;;;;32.98;nan;-24725.63;4974477;28;20176;-55